Time;durP1;ratioP1;P1;durP2;ratioP2;P2;SDS_P1;SDS_P2;PMS_P1;PMS_P2;Temp;Humidity;BMP_temperature;BMP_pressure;BME280_temperature;BME280_humidity;BME280_pressure;Samples;Min_cycle;Max_cycle;Signal;HPM_P1;HPM_P2
2023/07/19 00:01:44;;;;;;;0.10;0.10;;;20.90;99.90;;;;;;5021147;28;20199;-80
2023/07/19 00:04:09;;;;;;;0.10;0.10;;;20.70;99.90;;;;;;5021675;28;20200;-81
2023/07/19 00:06:35;;;;;;;0.10;0.10;;;20.70;99.90;;;;;;5019724;28;20372;-80
2023/07/19 00:09:01;;;;;;;0.10;0.10;;;20.80;99.90;;;;;;5020710;28;20206;-81
2023/07/19 00:11:26;;;;;;;0.10;0.10;;;21.00;99.90;;;;;;5021528;28;20194;-82
2023/07/19 00:13:52;;;;;;;0.10;0.10;;;21.00;99.90;;;;;;5019475;28;20193;-80
2023/07/19 00:16:18;;;;;;;0.10;0.10;;;21.10;99.90;;;;;;5020191;28;20193;-81
2023/07/19 00:18:44;;;;;;;0.10;0.10;;;21.00;99.90;;;;;;5019013;28;20190;-81
2023/07/19 00:21:09;;;;;;;0.10;0.10;;;21.00;99.90;;;;;;5018449;28;20217;-81
2023/07/19 00:23:35;;;;;;;0.10;0.10;;;21.10;99.90;;;;;;5019977;28;20197;-81
2023/07/19 00:26:00;;;;;;;0.10;0.10;;;21.00;99.90;;;;;;5020057;28;20236;-81
2023/07/19 00:28:26;;;;;;;0.10;0.10;;;21.00;99.90;;;;;;5020759;28;20583;-80
2023/07/19 00:31:04;;;;;;;0.10;0.10;;;20.90;99.90;;;;;;5023159;28;20210;-81
2023/07/19 00:33:30;;;;;;;0.10;0.10;;;20.60;99.90;;;;;;5024565;28;20835;-81
2023/07/19 00:35:55;;;;;;;0.10;0.10;;;20.30;99.90;;;;;;5022568;28;20240;-81
2023/07/19 00:38:21;;;;;;;0.10;0.10;;;20.20;99.90;;;;;;5022873;28;20197;-81
2023/07/19 00:40:51;;;;;;;0.10;0.10;;;20.10;99.90;;;;;;5024318;28;20213;-81
2023/07/19 00:43:16;;;;;;;0.10;0.10;;;20.00;99.90;;;;;;5024945;28;20631;-80
2023/07/19 00:45:53;;;;;;;0.10;0.10;;;19.90;99.90;;;;;;5023750;28;20187;-81
2023/07/19 00:48:18;;;;;;;0.10;0.10;;;19.80;99.90;;;;;;5023632;28;20264;-81
2023/07/19 00:50:45;;;;;;;0.10;0.10;;;19.70;99.90;;;;;;5022653;28;20711;-81
2023/07/19 00:53:12;;;;;;;0.10;0.10;;;19.60;99.90;;;;;;5023643;28;20783;-81
2023/07/19 00:55:38;;;;;;;0.10;0.10;;;19.60;99.90;;;;;;5025830;28;20240;-81
2023/07/19 00:58:04;;;;;;;0.10;0.10;;;19.60;99.90;;;;;;5025925;28;20239;-81
2023/07/19 01:00:30;;;;;;;0.10;0.10;;;19.60;99.90;;;;;;5022957;28;20215;-81
2023/07/19 01:02:56;;;;;;;0.10;0.10;;;19.40;99.90;;;;;;5023330;28;20202;-81
2023/07/19 01:05:21;;;;;;;0.10;0.10;;;19.30;99.90;;;;;;5023012;28;20213;-81
2023/07/19 01:07:47;;;;;;;0.10;0.10;;;19.20;99.90;;;;;;5023406;28;20218;-80
2023/07/19 01:10:13;;;;;;;0.10;0.10;;;19.10;99.90;;;;;;5025222;28;20256;-81
2023/07/19 01:12:39;;;;;;;0.10;0.10;;;19.00;99.90;;;;;;5022981;28;20196;-81
2023/07/19 01:15:09;;;;;;;0.10;0.10;;;19.00;99.90;;;;;;5022960;28;20201;-81
2023/07/19 01:17:38;;;;;;;0.10;0.10;;;19.10;99.90;;;;;;5024166;28;21248;-81
2023/07/19 01:20:06;;;;;;;0.10;0.10;;;19.20;99.90;;;;;;5022555;28;20228;-81
2023/07/19 01:22:35;;;;;;;0.10;0.10;;;19.30;99.90;;;;;;5021687;28;20183;-81
2023/07/19 01:25:00;;;;;;;0.10;0.10;;;19.30;99.90;;;;;;5024904;28;20236;-81
2023/07/19 01:27:26;;;;;;;0.10;0.10;;;19.40;99.90;;;;;;5024085;28;20572;-81
2023/07/19 01:29:51;;;;;;;0.10;0.10;;;19.50;99.90;;;;;;5023197;28;20569;-81
2023/07/19 01:32:17;;;;;;;0.10;0.10;;;19.60;99.90;;;;;;5024171;28;20190;-81
2023/07/19 01:34:43;;;;;;;0.10;0.10;;;19.60;99.90;;;;;;5031774;28;20186;-80
2023/07/19 01:37:09;;;;;;;0.10;0.10;;;19.60;99.90;;;;;;5021864;28;20192;-81
2023/07/19 01:39:34;;;;;;;0.10;0.10;;;19.60;99.90;;;;;;5023513;28;20210;-81
2023/07/19 01:42:00;;;;;;;0.10;0.10;;;19.70;99.90;;;;;;5024285;28;20287;-81
2023/07/19 01:44:26;;;;;;;0.10;0.10;;;19.80;99.90;;;;;;5020131;28;20564;-80
2023/07/19 01:46:52;;;;;;;0.10;0.10;;;19.80;99.90;;;;;;5019537;28;20265;-81
2023/07/19 01:49:17;;;;;;;0.10;0.10;;;19.80;99.90;;;;;;5020966;28;20745;-81
2023/07/19 01:51:43;;;;;;;0.10;0.10;;;19.70;99.90;;;;;;5021375;28;20209;-81
2023/07/19 01:54:08;;;;;;;0.10;0.10;;;19.80;99.90;;;;;;5023049;28;20662;-81
2023/07/19 01:56:34;;;;;;;0.10;0.10;;;19.80;99.90;;;;;;5023652;28;20229;-81
2023/07/19 01:58:59;;;;;;;0.10;0.10;;;19.80;99.90;;;;;;5022527;28;20186;-81
2023/07/19 02:01:25;;;;;;;0.10;0.10;;;19.90;99.90;;;;;;5020638;28;20899;-81
2023/07/19 02:03:50;;;;;;;0.10;0.10;;;19.90;99.90;;;;;;5021681;28;20193;-80
2023/07/19 02:06:16;;;;;;;0.10;0.10;;;19.90;99.90;;;;;;5022934;28;20224;-80
2023/07/19 02:08:41;;;;;;;0.10;0.10;;;19.90;99.90;;;;;;5021845;28;20215;-81
2023/07/19 02:11:07;;;;;;;0.10;0.10;;;19.80;99.90;;;;;;5023510;28;20206;-81
2023/07/19 02:13:32;;;;;;;0.10;0.10;;;19.80;99.90;;;;;;5024925;28;20182;-81
2023/07/19 02:15:58;;;;;;;0.10;0.10;;;19.80;99.90;;;;;;5020333;28;20198;-81
2023/07/19 02:18:23;;;;;;;0.10;0.10;;;19.80;99.90;;;;;;5024486;28;20202;-81
2023/07/19 02:20:53;;;;;;;0.10;0.10;;;19.80;99.90;;;;;;5020391;28;20214;-81
2023/07/19 02:23:19;;;;;;;0.10;0.10;;;19.80;99.90;;;;;;5022704;28;20197;-81
2023/07/19 02:25:48;;;;;;;0.10;0.10;;;19.80;99.90;;;;;;5022564;28;20190;-81
2023/07/19 02:28:14;;;;;;;0.10;0.10;;;19.70;99.90;;;;;;5022974;28;20678;-81
2023/07/19 02:30:44;;;;;;;0.10;0.10;;;19.70;99.90;;;;;;5021669;28;20718;-81
2023/07/19 02:33:14;;;;;;;0.10;0.10;;;19.60;99.90;;;;;;5021725;28;20582;-81
2023/07/19 02:35:40;;;;;;;0.10;0.10;;;19.40;99.90;;;;;;5021542;28;20187;-81
2023/07/19 02:38:06;;;;;;;0.10;0.10;;;19.20;99.90;;;;;;5020778;28;20194;-80
2023/07/19 02:40:31;;;;;;;0.10;0.10;;;19.00;99.90;;;;;;5023595;28;20255;-81
2023/07/19 02:42:57;;;;;;;0.10;0.10;;;19.00;99.90;;;;;;5021489;28;20278;-81
2023/07/19 02:45:24;;;;;;;0.10;0.10;;;19.10;99.90;;;;;;5023658;28;20193;-81
2023/07/19 02:47:50;;;;;;;0.10;0.10;;;19.20;99.90;;;;;;5021616;28;20305;-81
2023/07/19 02:50:17;;;;;;;0.10;0.10;;;19.20;99.90;;;;;;5022425;28;20317;-81
2023/07/19 02:52:43;;;;;;;0.10;0.10;;;19.20;99.90;;;;;;5019701;28;20190;-81
2023/07/19 02:55:08;;;;;;;0.10;0.10;;;19.20;99.90;;;;;;5022334;28;20640;-81
2023/07/19 02:57:34;;;;;;;0.10;0.10;;;19.30;99.90;;;;;;5022764;28;20273;-81
2023/07/19 02:59:59;;;;;;;0.10;0.10;;;19.20;99.90;;;;;;5022474;28;20228;-81
2023/07/19 03:02:25;;;;;;;0.10;0.10;;;19.10;99.90;;;;;;5021507;28;20178;-81
2023/07/19 03:04:50;;;;;;;0.10;0.10;;;18.90;99.90;;;;;;5021173;28;20285;-81
2023/07/19 03:07:16;;;;;;;0.10;0.10;;;19.00;99.90;;;;;;5021515;28;20252;-81
2023/07/19 03:09:41;;;;;;;0.10;0.10;;;19.00;99.90;;;;;;5022880;28;20635;-81
2023/07/19 03:12:07;;;;;;;0.10;0.10;;;19.10;99.90;;;;;;5019297;28;20252;-81
2023/07/19 03:14:33;;;;;;;0.10;0.10;;;19.10;99.90;;;;;;5020335;28;20279;-81
2023/07/19 03:16:58;;;;;;;0.10;0.10;;;19.00;99.90;;;;;;5020504;28;20328;-81
2023/07/19 03:19:24;;;;;;;0.10;0.10;;;19.10;99.90;;;;;;5022778;28;20236;-81
2023/07/19 03:21:49;;;;;;;0.10;0.10;;;19.20;99.90;;;;;;5018468;28;20691;-81
2023/07/19 03:24:15;;;;;;;0.10;0.10;;;19.10;99.90;;;;;;5023824;28;20228;-81
2023/07/19 03:26:40;;;;;;;0.10;0.10;;;19.00;99.90;;;;;;5020881;28;20715;-81
2023/07/19 03:29:06;;;;;;;0.10;0.10;;;19.00;99.90;;;;;;5022946;28;20213;-81
2023/07/19 03:31:31;;;;;;;0.10;0.10;;;19.10;99.90;;;;;;5020969;28;20203;-81
2023/07/19 03:33:57;;;;;;;0.10;0.10;;;19.10;99.90;;;;;;5019830;28;20852;-81
2023/07/19 03:36:23;;;;;;;0.10;0.10;;;19.10;99.90;;;;;;5018566;28;20193;-81
2023/07/19 03:38:48;;;;;;;0.10;0.10;;;19.20;99.90;;;;;;5022207;28;20227;-81
2023/07/19 03:41:14;;;;;;;0.10;0.10;;;19.20;99.90;;;;;;5017639;28;20955;-81
2023/07/19 03:43:40;;;;;;;0.10;0.10;;;19.20;99.90;;;;;;5021370;28;20190;-81
2023/07/19 03:46:06;;;;;;;0.10;0.10;;;19.20;99.90;;;;;;5020158;28;20421;-81
2023/07/19 03:48:31;;;;;;;0.10;0.10;;;19.20;99.90;;;;;;5020055;28;20198;-81
2023/07/19 03:50:58;;;;;;;0.10;0.10;;;19.20;99.90;;;;;;5019552;28;20710;-82
2023/07/19 03:53:24;;;;;;;0.10;0.10;;;19.20;99.90;;;;;;5022395;28;20247;-82
2023/07/19 03:55:57;;;;;;;0.10;0.10;;;19.30;99.90;;;;;;5020831;28;20186;-82
2023/07/19 03:58:24;;;;;;;0.10;0.10;;;19.50;99.90;;;;;;5021275;28;20713;-81
2023/07/19 04:00:54;;;;;;;0.10;0.10;;;19.50;99.90;;;;;;5012435;28;21508;-81
2023/07/19 04:03:20;;;;;;;0.10;0.10;;;19.80;99.90;;;;;;5013460;28;20200;-81
2023/07/19 04:05:46;;;;;;;0.10;0.10;;;20.30;99.90;;;;;;5018622;28;20454;-81
2023/07/19 04:08:14;;;;;;;0.10;0.10;;;20.20;99.90;;;;;;5019265;28;20212;-81
2023/07/19 04:10:39;;;;;;;0.10;0.10;;;20.10;99.90;;;;;;5017406;28;20242;-81
2023/07/19 04:13:05;;;;;;;0.10;0.10;;;20.00;99.90;;;;;;5019232;28;20225;-81
2023/07/19 04:15:32;;;;;;;0.10;0.10;;;20.40;99.90;;;;;;5019390;28;20179;-82
2023/07/19 04:17:57;;;;;;;0.10;0.10;;;20.90;99.90;;;;;;5020563;28;20193;-81
2023/07/19 04:20:23;;;;;;;0.10;0.10;;;20.70;99.90;;;;;;5016781;28;20668;-82
2023/07/19 04:22:49;;;;;;;0.10;0.10;;;20.80;99.90;;;;;;5020123;28;20311;-81
2023/07/19 04:25:14;;;;;;;0.10;0.10;;;20.80;99.90;;;;;;5020128;28;20190;-81
2023/07/19 04:27:40;;;;;;;0.10;0.10;;;21.20;99.90;;;;;;5011723;28;20206;-81
2023/07/19 04:30:06;;;;;;;0.10;0.10;;;21.40;99.90;;;;;;5015790;28;21023;-81
2023/07/19 04:32:32;;;;;;;0.10;0.10;;;21.50;99.90;;;;;;5021577;28;20238;-82
2023/07/19 04:34:58;;;;;;;0.10;0.10;;;21.60;99.90;;;;;;5020548;28;20187;-81
2023/07/19 04:37:24;;;;;;;0.10;0.10;;;21.60;99.90;;;;;;5021680;28;20201;-81
2023/07/19 04:39:49;;;;;;;0.10;0.10;;;21.60;99.90;;;;;;5019588;28;20244;-84
2023/07/19 04:42:16;;;;;;;0.10;0.10;;;21.50;99.90;;;;;;5015965;28;20191;-81
2023/07/19 04:44:42;;;;;;;0.10;0.10;;;21.40;99.90;;;;;;5019608;28;20195;-81
2023/07/19 04:47:09;;;;;;;0.10;0.10;;;21.40;99.90;;;;;;5021803;28;20714;-81
2023/07/19 04:49:35;;;;;;;0.10;0.10;;;21.30;99.90;;;;;;5019149;28;20292;-81
2023/07/19 04:52:00;;;;;;;0.10;0.10;;;21.30;99.90;;;;;;5020176;28;20202;-82
2023/07/19 04:54:26;;;;;;;0.10;0.10;;;21.30;99.90;;;;;;5020204;28;20202;-82
2023/07/19 04:56:52;;;;;;;0.10;0.10;;;21.10;99.90;;;;;;5018277;28;20853;-82
2023/07/19 04:59:17;;;;;;;0.10;0.10;;;20.80;99.90;;;;;;5022563;28;20183;-82
2023/07/19 05:01:43;;;;;;;0.10;0.10;;;20.10;99.90;;;;;;5020814;28;20207;-81
2023/07/19 05:04:08;;;;;;;0.10;0.10;;;20.10;99.90;;;;;;5019222;28;20668;-81
2023/07/19 05:06:34;;;;;;;0.10;0.10;;;20.30;99.90;;;;;;5021077;28;20194;-81
2023/07/19 05:09:00;;;;;;;0.10;0.10;;;20.50;99.90;;;;;;5021807;28;20251;-81
2023/07/19 05:11:25;;;;;;;0.10;0.10;;;20.70;99.90;;;;;;5017311;28;20297;-81
2023/07/19 05:13:51;;;;;;;0.10;0.10;;;20.90;99.90;;;;;;5017902;28;20648;-82
2023/07/19 05:16:17;;;;;;;0.10;0.10;;;21.00;99.90;;;;;;5019124;28;20190;-82
2023/07/19 05:18:42;;;;;;;0.10;0.10;;;21.10;99.90;;;;;;5022182;28;20188;-82
2023/07/19 05:21:08;;;;;;;0.10;0.10;;;21.30;99.90;;;;;;5016700;28;20820;-82
2023/07/19 05:23:34;;;;;;;0.10;0.10;;;21.40;99.90;;;;;;5016578;28;20199;-81
2023/07/19 05:25:59;;;;;;;0.10;0.10;;;21.50;99.90;;;;;;5022511;28;20344;-81
2023/07/19 05:28:25;;;;;;;0.10;0.10;;;21.50;99.90;;;;;;5024421;28;20214;-82
2023/07/19 05:30:50;;;;;;;0.10;0.10;;;21.50;99.90;;;;;;5037579;28;20210;-82
2023/07/19 05:33:16;;;;;;;0.10;0.10;;;21.60;99.90;;;;;;5023697;28;20218;-81
2023/07/19 05:35:42;;;;;;;0.10;0.10;;;21.70;99.90;;;;;;5022677;28;20183;-81
2023/07/19 05:38:08;;;;;;;0.10;0.10;;;21.60;99.90;;;;;;5024936;28;20313;-82
2023/07/19 05:40:34;;;;;;;0.10;0.10;;;21.80;99.90;;;;;;5025542;28;20277;-81
2023/07/19 05:42:59;;;;;;;0.10;0.10;;;21.80;99.90;;;;;;5019950;28;21188;-81
2023/07/19 05:45:25;;;;;;;0.10;0.10;;;21.90;99.90;;;;;;5023695;28;20197;-82
2023/07/19 05:47:50;;;;;;;0.10;0.10;;;22.00;99.90;;;;;;5021821;28;20206;-82
2023/07/19 05:50:16;;;;;;;0.40;0.40;;;22.10;99.90;;;;;;5022328;28;20213;-81
2023/07/19 05:52:41;;;;;;;0.10;0.10;;;22.00;99.90;;;;;;5023242;28;20224;-81
2023/07/19 05:55:07;;;;;;;0.10;0.10;;;22.10;99.90;;;;;;5022655;28;20197;-81
2023/07/19 05:57:34;;;;;;;0.10;0.10;;;22.10;99.90;;;;;;5024179;28;20273;-81
2023/07/19 06:00:13;;;;;;;0.20;0.20;;;22.10;99.90;;;;;;5024676;28;20813;-82
2023/07/19 06:02:40;;;;;;;0.10;0.10;;;22.20;99.90;;;;;;5023912;28;20196;-82
2023/07/19 06:05:06;;;;;;;0.10;0.10;;;22.20;99.90;;;;;;5017718;28;20197;-81
2023/07/19 06:07:32;;;;;;;0.10;0.10;;;22.30;99.90;;;;;;5021678;28;20206;-81
2023/07/19 06:09:58;;;;;;;0.10;0.10;;;22.20;99.90;;;;;;5025099;28;20178;-81
2023/07/19 06:12:23;;;;;;;0.10;0.10;;;22.30;99.90;;;;;;5024497;28;20714;-81
2023/07/19 06:14:49;;;;;;;0.10;0.10;;;22.40;99.90;;;;;;5023095;28;20182;-81
2023/07/19 06:17:14;;;;;;;0.10;0.10;;;22.40;99.90;;;;;;5020919;28;20267;-81
2023/07/19 06:19:40;;;;;;;0.10;0.10;;;22.50;99.90;;;;;;5019665;28;20182;-81
2023/07/19 06:22:05;;;;;;;0.10;0.10;;;22.60;99.90;;;;;;5017828;28;20736;-81
2023/07/19 06:24:31;;;;;;;0.10;0.10;;;22.70;99.90;;;;;;5022100;28;20793;-81
2023/07/19 06:26:56;;;;;;;0.10;0.10;;;22.70;99.90;;;;;;5020188;28;20963;-81
2023/07/19 06:29:23;;;;;;;0.10;0.10;;;22.90;99.90;;;;;;5020888;28;20199;-81
2023/07/19 06:31:49;;;;;;;0.10;0.10;;;23.10;99.90;;;;;;5019336;28;20312;-81
2023/07/19 06:34:15;;;;;;;0.10;0.10;;;23.00;99.90;;;;;;5013462;28;20187;-81
2023/07/19 06:36:41;;;;;;;0.10;0.10;;;23.00;99.90;;;;;;5021905;28;20224;-81
2023/07/19 06:39:06;;;;;;;0.10;0.10;;;23.10;99.90;;;;;;5019520;28;20231;-85
2023/07/19 06:41:32;;;;;;;0.10;0.10;;;23.00;99.90;;;;;;5020875;28;20259;-82
2023/07/19 06:43:57;;;;;;;0.10;0.10;;;23.10;99.90;;;;;;5020076;28;20225;-81
2023/07/19 06:46:23;;;;;;;0.10;0.10;;;23.20;99.90;;;;;;5018223;28;20187;-81
2023/07/19 06:48:49;;;;;;;0.10;0.10;;;23.40;99.90;;;;;;5020145;28;20218;-81
2023/07/19 06:51:15;;;;;;;0.10;0.10;;;23.40;99.90;;;;;;5019854;28;20613;-81
2023/07/19 06:53:40;;;;;;;0.10;0.10;;;23.40;99.90;;;;;;5020592;28;20185;-81
2023/07/19 06:56:07;;;;;;;0.10;0.10;;;23.60;99.90;;;;;;5023421;28;20225;-81
2023/07/19 06:58:32;;;;;;;0.10;0.10;;;23.70;99.90;;;;;;5023243;28;20570;-81
2023/07/19 07:00:58;;;;;;;0.10;0.10;;;23.80;99.90;;;;;;5021804;28;20268;-81
2023/07/19 07:03:24;;;;;;;0.10;0.10;;;23.70;99.90;;;;;;5019494;28;20198;-81
2023/07/19 07:05:49;;;;;;;0.10;0.10;;;23.70;99.90;;;;;;5021897;28;20210;-81
2023/07/19 07:08:15;;;;;;;0.10;0.10;;;23.90;99.90;;;;;;5024127;28;20230;-81
2023/07/19 07:10:42;;;;;;;0.10;0.10;;;24.10;99.90;;;;;;5024656;28;20272;-81
2023/07/19 07:13:08;;;;;;;0.10;0.10;;;24.20;99.90;;;;;;5024163;28;20190;-81
2023/07/19 07:15:34;;;;;;;0.10;0.10;;;24.40;99.90;;;;;;5021968;28;20648;-81
2023/07/19 07:17:59;;;;;;;0.10;0.10;;;24.40;99.90;;;;;;5022325;28;20194;-81
2023/07/19 07:20:25;;;;;;;0.10;0.10;;;24.60;99.90;;;;;;5023026;28;20209;-81
2023/07/19 07:22:50;;;;;;;0.10;0.10;;;24.40;99.90;;;;;;5023266;28;20273;-81
2023/07/19 07:25:16;;;;;;;0.10;0.10;;;24.50;99.90;;;;;;5023445;28;20194;-81
2023/07/19 07:27:42;;;;;;;0.10;0.10;;;24.70;99.90;;;;;;5021998;28;20218;-81
2023/07/19 07:30:09;;;;;;;0.10;0.10;;;24.80;99.90;;;;;;5022572;28;20186;-81
2023/07/19 07:32:35;;;;;;;0.10;0.10;;;24.90;99.90;;;;;;5019591;28;20190;-81
2023/07/19 07:35:00;;;;;;;0.10;0.10;;;24.90;99.90;;;;;;5021706;28;20190;-81
2023/07/19 07:37:26;;;;;;;0.10;0.10;;;25.00;99.90;;;;;;5023355;28;20190;-81
2023/07/19 07:39:52;;;;;;;0.10;0.10;;;24.90;99.90;;;;;;5021947;28;20551;-81
2023/07/19 07:42:19;;;;;;;0.10;0.10;;;24.90;99.90;;;;;;5021196;28;20184;-81
2023/07/19 07:44:44;;;;;;;0.10;0.10;;;24.90;99.90;;;;;;5022154;28;20190;-80
2023/07/19 07:47:10;;;;;;;0.10;0.10;;;24.50;99.90;;;;;;5021759;28;20194;-81
2023/07/19 07:49:36;;;;;;;0.10;0.10;;;24.90;99.90;;;;;;5022090;28;20210;-81
2023/07/19 07:52:02;;;;;;;0.10;0.10;;;25.10;99.90;;;;;;5024052;28;21382;-81
2023/07/19 07:54:28;;;;;;;0.10;0.10;;;25.10;99.90;;;;;;5021971;28;20174;-81
2023/07/19 07:56:54;;;;;;;0.10;0.10;;;25.20;99.90;;;;;;5021181;28;20197;-81
2023/07/19 07:59:19;;;;;;;0.10;0.10;;;25.50;99.90;;;;;;5023244;28;20186;-82
2023/07/19 08:01:45;;;;;;;0.10;0.10;;;25.50;99.90;;;;;;5021150;28;20210;-81
2023/07/19 08:04:12;;;;;;;0.10;0.10;;;25.60;99.90;;;;;;5020372;28;20194;-81
2023/07/19 08:06:38;;;;;;;0.10;0.10;;;25.40;99.90;;;;;;5022835;28;20194;-82
2023/07/19 08:09:04;;;;;;;0.10;0.10;;;25.80;99.90;;;;;;5020267;28;20234;-81
2023/07/19 08:11:32;;;;;;;0.10;0.10;;;26.10;99.90;;;;;;5021650;28;20214;-81
2023/07/19 08:13:58;;;;;;;0.10;0.10;;;25.90;99.90;;;;;;5021630;28;20194;-81
2023/07/19 08:16:23;;;;;;;0.10;0.10;;;26.20;99.90;;;;;;5019959;28;20190;-81
2023/07/19 08:18:49;;;;;;;0.10;0.10;;;26.50;99.90;;;;;;5028644;28;20194;-81
2023/07/19 08:21:15;;;;;;;0.10;0.10;;;26.70;99.90;;;;;;5021900;28;20202;-81
2023/07/19 08:23:40;;;;;;;0.10;0.10;;;26.70;99.90;;;;;;5021922;28;20178;-81
2023/07/19 08:26:06;;;;;;;0.10;0.10;;;26.70;99.90;;;;;;5021591;28;20182;-81
2023/07/19 08:28:31;;;;;;;0.10;0.10;;;27.20;99.90;;;;;;5020718;28;20207;-81
2023/07/19 08:30:57;;;;;;;0.10;0.10;;;27.20;99.90;;;;;;5019358;28;20234;-82
2023/07/19 08:33:23;;;;;;;0.10;0.10;;;27.50;99.90;;;;;;5021997;28;20186;-81
2023/07/19 08:35:49;;;;;;;0.10;0.10;;;27.80;99.90;;;;;;5021284;28;20182;-81
2023/07/19 08:38:16;;;;;;;0.10;0.10;;;28.00;99.90;;;;;;5020345;28;20274;-81
2023/07/19 08:41:08;;;;;;;0.10;0.10;;;28.30;99.90;;;;;;5022230;28;20209;-81
2023/07/19 08:43:37;;;;;;;0.10;0.10;;;28.60;99.90;;;;;;5019669;28;20652;-82
2023/07/19 08:46:03;;;;;;;0.10;0.10;;;28.90;99.90;;;;;;5022307;28;20260;-81
2023/07/19 08:48:31;;;;;;;0.10;0.10;;;29.00;99.90;;;;;;5020912;28;20198;-82
2023/07/19 08:51:01;;;;;;;0.10;0.10;;;29.40;99.90;;;;;;5024069;28;20208;-81
2023/07/19 08:53:27;;;;;;;0.10;0.10;;;29.70;99.90;;;;;;5025332;28;20253;-81
2023/07/19 08:55:54;;;;;;;0.10;0.10;;;29.70;99.90;;;;;;5026981;28;20178;-81
2023/07/19 08:58:20;;;;;;;0.10;0.10;;;30.00;99.90;;;;;;5027560;28;20183;-82
2023/07/19 09:00:50;;;;;;;0.10;0.10;;;30.40;99.90;;;;;;5025445;28;20212;-81
2023/07/19 09:03:16;;;;;;;0.10;0.10;;;30.40;99.90;;;;;;5024590;28;20194;-81
2023/07/19 09:05:43;;;;;;;0.10;0.10;;;30.60;99.90;;;;;;5024033;28;20202;-81
2023/07/19 09:08:09;;;;;;;0.10;0.10;;;30.50;99.90;;;;;;5025653;28;20723;-82
2023/07/19 09:10:35;;;;;;;0.10;0.10;;;30.60;99.90;;;;;;5025370;28;20272;-81
2023/07/19 09:13:05;;;;;;;0.10;0.10;;;30.50;99.90;;;;;;5033935;28;20232;-82
2023/07/19 09:15:37;;;;;;;0.10;0.10;;;30.30;99.90;;;;;;5024647;28;20183;-81
2023/07/19 09:18:05;;;;;;;0.10;0.10;;;30.60;99.90;;;;;;5026510;28;20174;-81
2023/07/19 09:20:32;;;;;;;0.10;0.10;;;30.90;99.90;;;;;;5024980;28;20198;-82
2023/07/19 09:22:58;;;;;;;0.10;0.10;;;30.70;99.90;;;;;;5023403;28;20270;-81
2023/07/19 09:25:24;;;;;;;0.10;0.10;;;30.60;99.90;;;;;;5023587;28;20190;-82
2023/07/19 09:27:52;;;;;;;0.10;0.10;;;30.60;99.90;;;;;;5024120;28;20210;-82
2023/07/19 09:30:18;;;;;;;0.10;0.10;;;30.40;99.90;;;;;;5022283;28;20288;-81
2023/07/19 09:32:43;;;;;;;0.10;0.10;;;30.30;99.90;;;;;;5024889;28;21198;-81
2023/07/19 09:35:09;;;;;;;0.30;0.30;;;30.20;99.90;;;;;;5023128;28;20174;-81
2023/07/19 09:37:35;;;;;;;0.10;0.10;;;30.10;99.90;;;;;;5024303;28;20292;-82
2023/07/19 09:40:03;;;;;;;0.10;0.10;;;29.90;99.90;;;;;;5023443;28;20178;-81
2023/07/19 09:42:32;;;;;;;0.10;0.10;;;29.80;99.90;;;;;;5023003;28;20186;-81
2023/07/19 09:45:00;;;;;;;0.10;0.10;;;29.60;99.90;;;;;;5024141;28;20201;-82
2023/07/19 09:47:26;;;;;;;0.10;0.10;;;29.60;99.90;;;;;;5024552;28;20170;-82
2023/07/19 09:49:53;;;;;;;0.10;0.10;;;29.50;99.90;;;;;;5026210;28;20197;-81
2023/07/19 09:52:19;;;;;;;0.10;0.10;;;29.40;99.90;;;;;;5024799;28;20636;-82
2023/07/19 09:54:45;;;;;;;0.10;0.10;;;29.70;99.90;;;;;;5023973;28;20731;-81
2023/07/19 09:57:11;;;;;;;0.10;0.10;;;30.00;99.90;;;;;;5022806;28;20179;-81
2023/07/19 09:59:41;;;;;;;0.10;0.10;;;29.70;99.90;;;;;;5030721;28;20295;-82
2023/07/19 10:02:07;;;;;;;0.10;0.10;;;29.90;99.90;;;;;;5020958;28;21486;-82
2023/07/19 10:04:38;;;;;;;0.10;0.10;;;29.80;99.90;;;;;;5024057;28;20560;-82
2023/07/19 10:07:07;;;;;;;0.20;0.20;;;30.00;99.90;;;;;;5025081;28;20198;-82
2023/07/19 10:09:35;;;;;;;0.10;0.10;;;30.40;99.90;;;;;;5024474;28;20248;-81
2023/07/19 10:12:05;;;;;;;0.10;0.10;;;30.40;99.90;;;;;;5023061;28;20211;-81
2023/07/19 10:14:32;;;;;;;0.10;0.10;;;30.80;99.90;;;;;;5025381;28;20179;-81
2023/07/19 10:16:59;;;;;;;0.10;0.10;;;30.80;99.90;;;;;;5022069;28;20201;-81
2023/07/19 10:19:25;;;;;;;0.10;0.10;;;30.60;99.90;;;;;;5023899;28;20480;-82
2023/07/19 10:22:07;;;;;;;0.10;0.10;;;30.20;99.90;;;;;;5021357;28;20213;-82
2023/07/19 10:24:37;;;;;;;0.10;0.10;;;30.00;99.90;;;;;;5022954;28;20273;-81
2023/07/19 10:27:05;;;;;;;0.10;0.10;;;29.90;99.90;;;;;;5024262;28;20198;-81
2023/07/19 10:30:03;;;;;;;0.10;0.10;;;29.70;99.90;;;;;;5023588;28;21063;-82
2023/07/19 10:32:29;;;;;;;0.10;0.10;;;29.70;99.90;;;;;;5021257;28;20657;-81
2023/07/19 10:34:54;;;;;;;0.10;0.10;;;30.10;99.90;;;;;;5021323;28;20182;-82
2023/07/19 10:37:20;;;;;;;0.10;0.10;;;30.20;99.90;;;;;;5025643;28;20190;-82
2023/07/19 10:39:46;;;;;;;0.10;0.10;;;30.10;99.90;;;;;;5024119;28;20691;-81
2023/07/19 10:42:12;;;;;;;0.10;0.10;;;30.20;99.90;;;;;;5021851;28;20310;-82
2023/07/19 10:44:37;;;;;;;0.10;0.10;;;30.50;99.90;;;;;;5024622;28;20179;-82
2023/07/19 10:47:04;;;;;;;0.10;0.10;;;30.80;99.90;;;;;;5024726;28;20187;-81
2023/07/19 10:49:29;;;;;;;0.10;0.10;;;30.80;99.90;;;;;;5022040;28;20213;-82
2023/07/19 10:51:56;;;;;;;0.10;0.10;;;30.80;99.90;;;;;;5021762;28;20203;-81
2023/07/19 10:54:22;;;;;;;0.13;0.13;;;31.10;99.90;;;;;;5024270;28;20248;-82
2023/07/19 10:56:49;;;;;;;0.10;0.10;;;31.00;99.90;;;;;;5021097;28;20225;-82
2023/07/19 10:59:16;;;;;;;0.10;0.10;;;30.80;99.90;;;;;;5025465;28;20186;-81
2023/07/19 11:01:42;;;;;;;0.10;0.10;;;30.40;99.90;;;;;;5024670;28;20203;-81
2023/07/19 11:04:08;;;;;;;0.10;0.10;;;30.30;99.90;;;;;;5023212;28;20282;-82
2023/07/19 11:06:36;;;;;;;0.10;0.10;;;30.30;99.90;;;;;;5025701;28;21183;-81
2023/07/19 11:09:06;;;;;;;0.10;0.10;;;30.20;99.90;;;;;;5022141;28;20264;-82
2023/07/19 11:11:35;;;;;;;0.10;0.10;;;30.30;99.90;;;;;;5023220;28;20277;-81
2023/07/19 11:14:01;;;;;;;0.10;0.10;;;30.10;99.90;;;;;;5022312;28;20752;-82
2023/07/19 11:16:28;;;;;;;0.10;0.10;;;30.00;99.90;;;;;;5021300;28;20305;-81
2023/07/19 11:18:53;;;;;;;0.10;0.10;;;29.70;99.90;;;;;;5022806;28;20698;-81
2023/07/19 11:21:28;;;;;;;0.10;0.10;;;29.30;99.90;;;;;;5022085;28;20206;-81
2023/07/19 11:23:55;;;;;;;0.10;0.10;;;29.40;99.90;;;;;;5022350;28;20201;-81
2023/07/19 11:26:21;;;;;;;0.10;0.10;;;29.50;99.90;;;;;;5021197;28;20328;-81
2023/07/19 11:28:55;;;;;;;0.10;0.10;;;29.60;99.90;;;;;;5022059;28;20218;-82
2023/07/19 11:31:34;;;;;;;0.10;0.10;;;29.70;99.90;;;;;;5021726;28;20201;-81
2023/07/19 11:34:11;;;;;;;0.10;0.10;;;29.80;99.90;;;;;;5022437;28;20182;-81
2023/07/19 11:36:41;;;;;;;0.10;0.10;;;29.70;99.90;;;;;;5021739;28;20186;-82
2023/07/19 11:39:17;;;;;;;0.10;0.10;;;29.50;99.90;;;;;;5022111;28;20801;-81
2023/07/19 11:41:44;;;;;;;0.10;0.10;;;29.40;99.90;;;;;;5022602;28;20695;-81
2023/07/19 11:44:21;;;;;;;0.10;0.10;;;29.20;99.90;;;;;;5021483;28;20188;-81
2023/07/19 11:46:47;;;;;;;0.10;0.10;;;28.90;99.90;;;;;;5021144;28;20217;-81
2023/07/19 11:49:13;;;;;;;0.10;0.10;;;28.70;99.90;;;;;;5021802;28;20241;-81
2023/07/19 11:51:40;;;;;;;0.10;0.10;;;28.60;99.90;;;;;;5022130;28;20217;-81
2023/07/19 11:54:06;;;;;;;0.10;0.10;;;28.50;99.90;;;;;;5020726;28;20182;-81
2023/07/19 11:56:32;;;;;;;0.10;0.10;;;28.40;99.90;;;;;;5021911;28;20270;-81
2023/07/19 11:58:57;;;;;;;0.10;0.10;;;28.50;99.90;;;;;;5020459;28;20196;-81
2023/07/19 12:01:27;;;;;;;0.10;0.10;;;28.50;99.90;;;;;;5020879;28;20203;-81
2023/07/19 12:03:53;;;;;;;0.10;0.10;;;28.40;99.90;;;;;;5021540;28;20191;-81
2023/07/19 12:06:19;;;;;;;0.10;0.10;;;28.40;99.90;;;;;;5021403;28;20210;-81
2023/07/19 12:08:45;;;;;;;0.10;0.10;;;28.30;99.90;;;;;;5030625;28;20198;-82
2023/07/19 12:11:11;;;;;;;0.10;0.10;;;28.20;99.90;;;;;;5022763;28;20209;-82
2023/07/19 12:13:37;;;;;;;0.10;0.10;;;28.30;99.90;;;;;;5020980;28;20626;-82
2023/07/19 12:16:03;;;;;;;0.10;0.10;;;28.50;99.90;;;;;;5022993;28;20181;-82
2023/07/19 12:18:29;;;;;;;0.10;0.10;;;28.50;99.90;;;;;;5023054;28;20189;-82
2023/07/19 12:20:55;;;;;;;0.10;0.10;;;27.90;99.90;;;;;;5022790;28;20206;-81
2023/07/19 12:23:21;;;;;;;0.10;0.10;;;27.70;99.90;;;;;;5023265;28;20214;-81
2023/07/19 12:25:47;;;;;;;0.10;0.10;;;27.50;99.90;;;;;;5025778;28;20194;-81
2023/07/19 12:28:14;;;;;;;0.10;0.10;;;27.50;99.90;;;;;;5025118;28;20220;-82
2023/07/19 12:30:41;;;;;;;0.10;0.10;;;27.70;99.90;;;;;;5026878;28;20282;-82
2023/07/19 12:33:06;;;;;;;0.10;0.10;;;27.70;99.90;;;;;;5027278;28;20178;-81
2023/07/19 12:35:32;;;;;;;0.10;0.10;;;27.70;99.90;;;;;;5028770;28;20174;-81
2023/07/19 12:37:57;;;;;;;0.10;0.10;;;27.40;99.90;;;;;;5024859;28;20229;-81
2023/07/19 12:40:23;;;;;;;0.10;0.10;;;27.20;99.90;;;;;;5028035;28;20242;-81
2023/07/19 12:42:48;;;;;;;0.10;0.10;;;26.70;99.90;;;;;;5023392;28;20233;-81
2023/07/19 12:45:15;;;;;;;0.10;0.10;;;26.30;99.90;;;;;;5024102;28;20190;-81